< Typhoon 199109 1991 Season Typhoon 199111 >
Typhoon 199110 (ELLIE)
General InformationTrack Information on Google MapsDetailed Wind InformationList of All Images || Disaster Info.ResourceGoogle EarthGE AnimationAtom FeedGeoJSON
Detalied Best Track (Time Zone = UTC)
Year Month Day Hour Lat. Long. Pressure (hPa) Wind (kt) Class Image Chart
1991 8 10 00 21.7 159.3 1002 0 2 Image Chart
1991 8 10 06 22.2 158.5 1002 0 2 Image Chart
1991 8 10 12 22.8 157.9 1000 0 2 Image Chart
1991 8 10 18 23.5 157.2 1000 0 2 Image Chart
1991 8 11 00 24.0 156.4 996 35 3 Image Chart
1991 8 11 06 24.7 155.1 992 40 3 Image Chart
1991 8 11 12 25.1 153.7 992 40 3 Image Chart
1991 8 11 18 25.4 152.2 990 45 3 Image Chart
1991 8 12 00 25.9 150.8 985 50 4 Image Chart
1991 8 12 03 26.3 150.1 985 50 4 Image Chart
1991 8 12 06 26.7 149.6 985 50 4 Image Chart
1991 8 12 09 26.9 148.9 985 50 4 Image Chart
1991 8 12 12 27.0 148.2 985 50 4 Image Chart
1991 8 12 15 27.1 147.4 985 50 4 Image Chart
1991 8 12 18 27.1 146.6 985 50 4 Image Chart
1991 8 12 21 27.1 146.1 985 50 4 Image Chart
1991 8 13 00 27.2 145.4 985 50 4 Image Chart
1991 8 13 03 27.2 144.9 985 50 4 Image Chart
1991 8 13 06 27.4 144.3 985 50 4 Image Chart
1991 8 13 09 27.6 143.6 980 55 4 Image Chart
1991 8 13 12 27.6 143.1 980 55 4 Image Chart
1991 8 13 15 27.5 142.5 975 60 4 Image Chart
1991 8 13 18 27.2 141.7 975 60 4 Image Chart
1991 8 13 21 26.9 141.2 970 65 5 Image Chart
1991 8 14 00 26.7 140.8 965 65 5 Image Chart
1991 8 14 03 26.7 140.2 960 70 5 Image Chart
1991 8 14 06 26.7 139.6 960 70 5 Image Chart
1991 8 14 09 26.7 139.0 960 70 5 Image Chart
1991 8 14 12 26.7 138.4 960 70 5 Image Chart
1991 8 14 15 26.7 137.5 960 70 5 Image Chart
1991 8 14 18 26.6 136.6 960 70 5 Image Chart
1991 8 14 21 26.5 136.1 960 70 5 Image Chart
1991 8 15 00 26.5 135.4 965 65 5 Image Chart
1991 8 15 03 26.5 134.7 965 65 5 Image Chart
1991 8 15 06 26.4 134.0 965 65 5 Image Chart
1991 8 15 09 26.4 133.0 965 65 5 Image Chart
1991 8 15 12 26.2 132.2 970 65 5 Image Chart
1991 8 15 15 26.0 131.3 970 65 5 Image Chart
1991 8 15 18 25.9 130.2 975 60 4 Image Chart
1991 8 15 21 25.7 129.7 975 60 4 Image Chart
1991 8 16 00 25.7 129.0 980 55 4 Image Chart
1991 8 16 03 25.5 128.3 980 55 4 Image Chart
1991 8 16 06 25.5 127.7 980 55 4 Image Chart
1991 8 16 09 25.4 127.2 980 55 4 Image Chart
1991 8 16 12 25.1 126.4 980 55 4 Image Chart
1991 8 16 15 25.1 126.0 980 55 4 Image Chart
1991 8 16 18 25.1 125.4 980 50 4 Image Chart
1991 8 16 21 25.1 124.8 980 50 4 Image Chart
1991 8 17 00 25.1 124.2 980 50 4 Image Chart
1991 8 17 03 25.1 123.9 980 50 4 Image Chart
1991 8 17 06 25.0 123.6 985 50 4 Image Chart
1991 8 17 09 25.0 123.2 985 50 4 Image Chart
1991 8 17 12 25.0 122.8 985 50 4 Image Chart
1991 8 17 15 25.0 122.4 985 50 4 Image Chart
1991 8 17 18 25.2 122.0 985 50 4 Image Chart
1991 8 17 21 25.3 121.4 985 50 4 Image Chart
1991 8 18 00 25.3 121.0 990 45 3 Image Chart
1991 8 18 03 25.3 120.5 990 45 3 Image Chart
1991 8 18 06 25.3 120.1 994 40 3 Image Chart
1991 8 18 09 25.3 119.7 996 35 3 Image Chart
1991 8 18 12 25.0 119.5 1000 0 2 Image Chart
1991 8 18 18 24.4 119.0 1000 0 2 Image Chart
1991 8 19 00 23.8 118.8 1000 0 2 Image Chart
1991 8 19 06 23.5 118.5 1000 0 2 Image Chart
Japan Meteorological Agency Best Track Data | Correction Date : 1992-01-04
< Typhoon 199109 1991 Season Typhoon 199111 >

Help